Time;durP1;ratioP1;P1;durP2;ratioP2;P2;SDS_P1;SDS_P2;PMS_P1;PMS_P2;Temp;Humidity;BMP_temperature;BMP_pressure;BME280_temperature;BME280_humidity;BME280_pressure;Samples;Min_cycle;Max_cycle;Signal;HPM_P1;HPM_P2
2021/09/15 00:00:37;;;;;;;;;7.00;6.00;;;;;;;;5062871;28;45291;-80
2021/09/15 00:03:02;;;;;;;;;6.00;5.00;;;;;;;;5062766;28;45544;-80
2021/09/15 00:05:28;;;;;;;;;6.50;4.75;;;;;;;;5071453;28;45599;-80
2021/09/15 00:07:53;;;;;;;;;5.00;5.00;;;;;;;;5060257;28;46161;-80
2021/09/15 00:10:18;;;;;;;;;6.00;5.00;;;;;;;;5059689;28;45349;-80
2021/09/15 00:12:43;;;;;;;;;6.50;5.50;;;;;;;;5064869;28;45121;-80
2021/09/15 00:15:09;;;;;;;;;6.50;6.00;;;;;;;;5063127;28;45509;-80
2021/09/15 00:17:34;;;;;;;;;7.75;4.00;;;;;;;;5060099;28;46461;-80
2021/09/15 00:19:59;;;;;;;;;8.00;6.00;;;;;;;;5060227;28;45390;-80
2021/09/15 00:22:25;;;;;;;;;6.00;5.00;;;;;;;;5060484;28;45153;-80
2021/09/15 00:24:50;;;;;;;;;4.00;4.00;;;;;;;;5060218;28;45255;-80
2021/09/15 00:27:15;;;;;;;;;5.75;5.50;;;;;;;;5060043;28;46200;-80
2021/09/15 00:29:41;;;;;;;;;6.00;6.00;;;;;;;;5059747;28;45227;-80
2021/09/15 00:32:06;;;;;;;;;7.00;5.00;;;;;;;;5060486;28;45295;-80
2021/09/15 00:34:32;;;;;;;;;7.50;6.00;;;;;;;;5059769;28;45228;-81
2021/09/15 00:36:57;;;;;;;;;9.00;6.00;;;;;;;;5059909;28;46776;-80
2021/09/15 00:39:23;;;;;;;;;5.50;4.00;;;;;;;;5059886;28;45271;-80
2021/09/15 00:41:48;;;;;;;;;6.75;5.00;;;;;;;;5066679;28;45485;-80
2021/09/15 00:44:14;;;;;;;;;6.00;4.00;;;;;;;;5067571;28;45367;-80
2021/09/15 00:46:40;;;;;;;;;5.00;5.00;;;;;;;;5062208;28;46085;-80
2021/09/15 00:49:06;;;;;;;;;6.00;4.00;;;;;;;;5062071;28;45426;-80
2021/09/15 00:51:36;;;;;;;;;9.75;5.00;;;;;;;;5060753;28;45386;-80
2021/09/15 00:54:04;;;;;;;;;4.00;4.00;;;;;;;;5058575;28;45853;-80
2021/09/15 00:56:29;;;;;;;;;5.25;4.75;;;;;;;;5063692;28;46079;-80
2021/09/15 00:58:54;;;;;;;;;6.33;6.00;;;;;;;;5087651;28;45212;-80
2021/09/15 01:01:19;;;;;;;;;5.00;5.00;;;;;;;;5071394;28;45314;-80
2021/09/15 01:03:44;;;;;;;;;8.00;5.00;;;;;;;;5059569;28;45431;-80
2021/09/15 01:06:10;;;;;;;;;4.00;4.00;;;;;;;;5059623;28;46357;-80
2021/09/15 01:08:35;;;;;;;;;9.00;4.00;;;;;;;;5058419;28;45394;-80
2021/09/15 01:11:01;;;;;;;;;4.50;4.50;;;;;;;;5059593;28;45381;-80
2021/09/15 01:13:27;;;;;;;;;4.00;3.25;;;;;;;;5068397;28;45915;-80
2021/09/15 01:15:52;;;;;;;;;4.75;4.00;;;;;;;;5060259;27;45426;-80
2021/09/15 01:18:19;;;;;;;;;4.00;4.00;;;;;;;;5059707;28;45283;-80
2021/09/15 01:20:44;;;;;;;;;7.00;4.50;;;;;;;;5060214;28;45314;-80
2021/09/15 01:23:10;;;;;;;;;6.00;5.00;;;;;;;;5063020;28;45469;-80
2021/09/15 01:25:35;;;;;;;;;6.00;6.00;;;;;;;;5062710;28;45233;-80
2021/09/15 01:28:00;;;;;;;;;8.75;5.25;;;;;;;;5063027;28;45196;-79
2021/09/15 01:30:26;;;;;;;;;6.00;6.00;;;;;;;;5065492;28;45362;-80
2021/09/15 01:32:51;;;;;;;;;6.25;4.75;;;;;;;;5063907;28;45224;-80
2021/09/15 01:35:16;;;;;;;;;7.00;5.33;;;;;;;;5062362;28;47227;-80
2021/09/15 01:37:41;;;;;;;;;8.00;5.50;;;;;;;;5062738;28;45208;-80
2021/09/15 01:40:07;;;;;;;;;8.00;7.00;;;;;;;;5062748;28;45326;-80
2021/09/15 01:42:32;;;;;;;;;8.50;6.00;;;;;;;;5076864;28;45397;-80
2021/09/15 01:44:57;;;;;;;;;7.00;7.00;;;;;;;;5063218;27;45908;-80
2021/09/15 01:47:23;;;;;;;;;7.00;6.75;;;;;;;;5062576;28;45347;-80
2021/09/15 01:49:49;;;;;;;;;5.25;5.25;;;;;;;;5062563;28;45346;-80
2021/09/15 01:52:15;;;;;;;;;8.00;6.00;;;;;;;;5062638;28;45351;-80
2021/09/15 01:54:40;;;;;;;;;6.00;6.00;;;;;;;;5062463;28;46013;-80
2021/09/15 01:57:06;;;;;;;;;7.00;6.00;;;;;;;;5065674;28;45215;-80
2021/09/15 01:59:31;;;;;;;;;9.00;8.00;;;;;;;;5061983;28;45561;-80
2021/09/15 02:01:56;;;;;;;;;7.00;7.00;;;;;;;;5062354;28;45220;-80
2021/09/15 02:04:21;;;;;;;;;6.25;5.50;;;;;;;;5063972;27;46057;-80
2021/09/15 02:06:47;;;;;;;;;7.50;7.25;;;;;;;;5070636;28;45433;-80
2021/09/15 02:09:12;;;;;;;;;6.50;5.50;;;;;;;;5062145;28;45389;-80
2021/09/15 02:11:37;;;;;;;;;7.67;6.00;;;;;;;;5062470;28;45437;-80
2021/09/15 02:14:03;;;;;;;;;7.50;6.25;;;;;;;;5072407;28;45658;-80
2021/09/15 02:16:28;;;;;;;;;8.25;6.25;;;;;;;;5062749;28;45745;-80
2021/09/15 02:18:54;;;;;;;;;7.75;6.00;;;;;;;;5064339;27;45403;-80
2021/09/15 02:21:19;;;;;;;;;8.00;6.00;;;;;;;;5062746;28;45626;-80
2021/09/15 02:23:44;;;;;;;;;6.25;6.00;;;;;;;;5061668;28;45267;-80
2021/09/15 02:26:10;;;;;;;;;5.75;5.50;;;;;;;;5062336;28;45292;-78
2021/09/15 02:28:36;;;;;;;;;7.00;5.75;;;;;;;;5061781;28;45192;-78
2021/09/15 02:31:01;;;;;;;;;6.50;6.50;;;;;;;;5061775;28;45284;-80
2021/09/15 02:33:26;;;;;;;;;7.00;7.00;;;;;;;;5061378;28;46147;-80
2021/09/15 02:35:52;;;;;;;;;7.00;7.00;;;;;;;;5060590;27;45273;-80
2021/09/15 02:38:17;;;;;;;;;10.00;7.00;;;;;;;;5061832;28;45360;-80
2021/09/15 02:40:42;;;;;;;;;7.50;5.50;;;;;;;;5060599;28;45473;-80
2021/09/15 02:43:08;;;;;;;;;8.00;8.00;;;;;;;;5080523;28;45283;-80
2021/09/15 02:45:33;;;;;;;;;7.00;5.00;;;;;;;;5081985;28;45590;-80
2021/09/15 02:47:58;;;;;;;;;6.50;6.50;;;;;;;;5080529;28;45476;-80
2021/09/15 02:50:23;;;;;;;;;6.00;6.00;;;;;;;;5081985;28;45416;-80
2021/09/15 02:52:49;;;;;;;;;8.50;6.25;;;;;;;;5081680;28;45481;-80
2021/09/15 02:55:14;;;;;;;;;7.33;6.00;;;;;;;;5080638;28;45334;-80
2021/09/15 02:57:39;;;;;;;;;6.50;5.75;;;;;;;;5062978;28;45436;-80
2021/09/15 03:00:05;;;;;;;;;8.67;5.33;;;;;;;;5061297;28;45271;-80
2021/09/15 03:02:31;;;;;;;;;5.25;5.00;;;;;;;;5061693;28;47093;-80
2021/09/15 03:04:56;;;;;;;;;5.25;5.25;;;;;;;;5073878;28;45537;-80
2021/09/15 03:07:21;;;;;;;;;6.50;5.25;;;;;;;;5068351;27;45410;-80
2021/09/15 03:09:46;;;;;;;;;9.00;6.75;;;;;;;;5061343;28;45521;-79
2021/09/15 03:12:11;;;;;;;;;9.67;8.00;;;;;;;;5061035;28;45397;-80
2021/09/15 03:14:37;;;;;;;;;9.00;5.00;;;;;;;;5081053;27;45372;-80
2021/09/15 03:17:02;;;;;;;;;6.75;4.25;;;;;;;;5066151;28;45500;-80
2021/09/15 03:19:27;;;;;;;;;5.50;5.50;;;;;;;;5059632;28;45312;-80
2021/09/15 03:21:52;;;;;;;;;8.75;8.00;;;;;;;;5061044;28;45553;-80
2021/09/15 03:24:18;;;;;;;;;8.00;6.00;;;;;;;;5062540;28;45302;-77
2021/09/15 03:26:43;;;;;;;;;9.00;5.00;;;;;;;;5071810;28;44684;-80
2021/09/15 03:29:08;;;;;;;;;7.00;7.00;;;;;;;;5061108;28;45156;-80
2021/09/15 03:31:33;;;;;;;;;8.00;8.00;;;;;;;;5060826;28;46347;-80
2021/09/15 03:33:59;;;;;;;;;7.00;6.00;;;;;;;;5061195;28;45373;-78
2021/09/15 03:36:24;;;;;;;;;7.00;7.00;;;;;;;;5060921;28;45203;-80
2021/09/15 03:38:49;;;;;;;;;7.33;7.33;;;;;;;;5059556;28;45711;-78
2021/09/15 03:41:14;;;;;;;;;9.50;8.75;;;;;;;;5070900;28;45281;-80
2021/09/15 03:43:40;;;;;;;;;10.67;7.33;;;;;;;;5059504;28;45204;-80
2021/09/15 03:46:05;;;;;;;;;7.25;7.25;;;;;;;;5060877;28;45358;-80
2021/09/15 03:48:30;;;;;;;;;10.00;8.50;;;;;;;;5062867;28;45578;-79
2021/09/15 03:50:56;;;;;;;;;10.50;8.50;;;;;;;;5063858;28;46477;-80
2021/09/15 03:53:21;;;;;;;;;8.75;8.00;;;;;;;;5060000;28;45312;-80
2021/09/15 03:55:46;;;;;;;;;9.25;7.00;;;;;;;;5064984;28;45244;-80
2021/09/15 03:58:12;;;;;;;;;11.25;8.25;;;;;;;;5060218;28;45482;-80
2021/09/15 04:00:37;;;;;;;;;12.00;11.00;;;;;;;;5060504;28;45672;-80
2021/09/15 04:03:02;;;;;;;;;8.00;8.00;;;;;;;;5060446;28;45264;-80
2021/09/15 04:05:27;;;;;;;;;9.75;7.25;;;;;;;;5071470;28;45215;-80
2021/09/15 04:07:53;;;;;;;;;13.33;9.00;;;;;;;;5061825;28;45211;-80
2021/09/15 04:10:18;;;;;;;;;10.00;8.00;;;;;;;;5058935;28;47633;-80
2021/09/15 04:12:43;;;;;;;;;8.50;8.00;;;;;;;;5063316;28;45428;-80
2021/09/15 04:15:09;;;;;;;;;7.25;7.25;;;;;;;;5068613;28;45378;-80
2021/09/15 04:17:34;;;;;;;;;11.25;10.00;;;;;;;;5058765;28;45435;-80
2021/09/15 04:19:59;;;;;;;;;12.00;9.00;;;;;;;;5060199;28;45402;-80
2021/09/15 04:22:25;;;;;;;;;7.00;7.00;;;;;;;;5058750;28;45472;-80
2021/09/15 04:32:43;;;;;;;;;9.50;8.75;;;;;;;;5059964;28;45624;-80
2021/09/15 04:35:09;;;;;;;;;8.67;7.00;;;;;;;;5061424;28;45363;-80
2021/09/15 04:37:34;;;;;;;;;12.75;7.50;;;;;;;;5059876;28;45540;-80
2021/09/15 04:39:59;;;;;;;;;8.00;7.00;;;;;;;;5069323;28;45347;-80
2021/09/15 04:42:25;;;;;;;;;9.33;7.67;;;;;;;;5070651;27;45488;-80
2021/09/15 04:44:50;;;;;;;;;7.75;7.25;;;;;;;;5063226;28;45408;-80
2021/09/15 04:47:15;;;;;;;;;9.00;9.00;;;;;;;;5078470;28;45686;-80
2021/09/15 04:49:40;;;;;;;;;8.00;7.67;;;;;;;;5079890;28;45430;-80
2021/09/15 04:52:06;;;;;;;;;9.33;8.00;;;;;;;;5080272;28;45371;-80
2021/09/15 04:54:31;;;;;;;;;10.00;7.25;;;;;;;;5079007;28;45500;-80
2021/09/15 04:56:56;;;;;;;;;9.00;9.00;;;;;;;;5072539;28;45539;-80
2021/09/15 04:59:21;;;;;;;;;8.75;7.25;;;;;;;;5061796;28;48557;-80
2021/09/15 05:01:46;;;;;;;;;10.00;10.00;;;;;;;;5062446;28;45361;-81
2021/09/15 05:04:12;;;;;;;;;11.67;9.33;;;;;;;;5064333;28;45501;-81
2021/09/15 05:06:37;;;;;;;;;9.75;7.50;;;;;;;;5074116;27;45595;-81
2021/09/15 05:09:03;;;;;;;;;9.50;8.00;;;;;;;;5064447;28;46795;-82
2021/09/15 05:11:28;;;;;;;;;8.00;8.00;;;;;;;;5084249;27;45415;-81
2021/09/15 05:13:53;;;;;;;;;8.25;7.00;;;;;;;;5080762;27;45358;-81
2021/09/15 05:16:18;;;;;;;;;9.00;8.50;;;;;;;;5073419;28;45430;-81
2021/09/15 05:18:44;;;;;;;;;10.00;8.00;;;;;;;;5074986;28;45479;-81
2021/09/15 05:21:09;;;;;;;;;9.33;7.33;;;;;;;;5077595;28;45391;-80
2021/09/15 05:23:34;;;;;;;;;10.67;9.33;;;;;;;;5080074;28;45540;-81
2021/09/15 05:26:00;;;;;;;;;9.33;9.33;;;;;;;;5071978;28;45402;-80
2021/09/15 05:28:25;;;;;;;;;9.25;6.75;;;;;;;;5061840;28;47269;-80
2021/09/15 05:30:50;;;;;;;;;11.33;8.00;;;;;;;;5061767;28;45241;-80
2021/09/15 05:33:15;;;;;;;;;12.00;8.33;;;;;;;;5062726;28;45224;-80
2021/09/15 05:35:40;;;;;;;;;9.75;7.50;;;;;;;;5062926;28;45206;-81
2021/09/15 05:38:06;;;;;;;;;8.67;8.00;;;;;;;;5062748;28;45454;-81
2021/09/15 05:40:31;;;;;;;;;9.75;8.25;;;;;;;;5070577;28;45251;-80
2021/09/15 05:42:56;;;;;;;;;10.50;7.25;;;;;;;;5063820;28;45476;-81
2021/09/15 05:45:21;;;;;;;;;11.67;11.00;;;;;;;;5062539;28;45315;-81
2021/09/15 05:47:47;;;;;;;;;9.33;8.00;;;;;;;;5074560;28;45516;-81
2021/09/15 05:50:12;;;;;;;;;11.00;8.67;;;;;;;;5078316;27;45243;-81
2021/09/15 05:52:37;;;;;;;;;12.25;10.00;;;;;;;;5091911;28;45263;-80
2021/09/15 05:55:03;;;;;;;;;12.50;10.25;;;;;;;;5094437;28;44823;-81
2021/09/15 05:57:28;;;;;;;;;11.75;10.00;;;;;;;;5070438;28;48670;-81
2021/09/15 05:59:53;;;;;;;;;11.75;10.00;;;;;;;;5062404;28;45276;-81
2021/09/15 06:02:18;;;;;;;;;10.00;10.00;;;;;;;;5078685;27;45503;-81
2021/09/15 06:04:44;;;;;;;;;13.00;13.00;;;;;;;;5070594;28;45497;-81
2021/09/15 06:07:10;;;;;;;;;13.50;8.50;;;;;;;;5081791;28;47504;-81
2021/09/15 06:09:35;;;;;;;;;12.00;9.50;;;;;;;;5067663;28;45661;-81
2021/09/15 06:12:00;;;;;;;;;8.50;7.50;;;;;;;;5075629;28;45842;-81
2021/09/15 06:14:26;;;;;;;;;16.00;12.00;;;;;;;;5074515;28;45308;-81
2021/09/15 06:16:51;;;;;;;;;14.75;10.75;;;;;;;;5074461;28;47806;-81
2021/09/15 06:19:16;;;;;;;;;14.25;10.75;;;;;;;;5079063;27;45432;-81
2021/09/15 06:21:41;;;;;;;;;15.33;11.67;;;;;;;;5081742;27;45433;-81
2021/09/15 06:24:06;;;;;;;;;13.00;10.67;;;;;;;;5072194;28;45386;-81
2021/09/15 06:26:32;;;;;;;;;16.00;12.50;;;;;;;;5081808;28;46456;-81
2021/09/15 06:28:57;;;;;;;;;12.75;10.00;;;;;;;;5081965;27;45426;-81
2021/09/15 06:31:23;;;;;;;;;10.33;8.67;;;;;;;;5074881;28;45452;-82
2021/09/15 06:33:48;;;;;;;;;14.00;11.50;;;;;;;;5071534;28;45336;-81
2021/09/15 06:36:15;;;;;;;;;9.50;9.00;;;;;;;;5081675;27;46306;-81
2021/09/15 06:38:44;;;;;;;;;12.00;10.00;;;;;;;;5081565;28;45538;-81
2021/09/15 06:41:09;;;;;;;;;12.50;11.50;;;;;;;;5079868;28;45432;-81
2021/09/15 06:43:35;;;;;;;;;14.50;10.25;;;;;;;;5077325;28;46237;-81
2021/09/15 06:46:00;;;;;;;;;11.25;10.50;;;;;;;;5079471;28;46249;-81
2021/09/15 06:48:25;;;;;;;;;13.50;11.75;;;;;;;;5071660;28;45346;-81
2021/09/15 06:50:51;;;;;;;;;13.25;10.25;;;;;;;;5060130;28;45477;-81
2021/09/15 06:53:16;;;;;;;;;14.25;10.75;;;;;;;;5062531;28;45285;-80
2021/09/15 06:55:41;;;;;;;;;15.00;12.67;;;;;;;;5068207;28;47121;-81
2021/09/15 06:58:06;;;;;;;;;12.67;12.33;;;;;;;;5073097;27;45404;-81
2021/09/15 07:00:31;;;;;;;;;16.67;15.33;;;;;;;;5068281;27;45456;-80
2021/09/15 07:02:57;;;;;;;;;18.33;14.33;;;;;;;;5076545;28;45396;-81
2021/09/15 07:05:23;;;;;;;;;10.25;9.75;;;;;;;;5074032;28;45460;-81
2021/09/15 07:07:48;;;;;;;;;18.50;16.25;;;;;;;;5079485;28;45386;-81
2021/09/15 07:10:14;;;;;;;;;21.00;15.75;;;;;;;;5066234;28;45421;-79
2021/09/15 07:12:40;;;;;;;;;13.00;12.00;;;;;;;;5068521;28;45485;-81
2021/09/15 07:15:06;;;;;;;;;16.50;12.75;;;;;;;;5080471;27;45237;-80
2021/09/15 07:17:31;;;;;;;;;14.00;12.00;;;;;;;;5072218;28;45430;-80
2021/09/15 07:19:57;;;;;;;;;14.25;14.00;;;;;;;;5064536;27;45676;-80
2021/09/15 07:22:22;;;;;;;;;12.25;10.25;;;;;;;;5081908;27;45537;-78
2021/09/15 07:24:47;;;;;;;;;14.33;12.33;;;;;;;;5087932;27;46196;-81
2021/09/15 07:27:13;;;;;;;;;16.00;10.00;;;;;;;;5070246;27;45825;-81
2021/09/15 07:29:39;;;;;;;;;17.33;15.67;;;;;;;;5085113;27;45425;-80
2021/09/15 07:32:04;;;;;;;;;19.33;16.33;;;;;;;;5079135;27;45421;-80
2021/09/15 07:34:29;;;;;;;;;13.75;13.75;;;;;;;;5075300;27;45690;-80
2021/09/15 07:36:54;;;;;;;;;19.33;14.33;;;;;;;;5076257;27;45880;-80
2021/09/15 07:39:20;;;;;;;;;18.75;16.25;;;;;;;;5076034;27;45340;-80
2021/09/15 07:41:45;;;;;;;;;17.67;15.67;;;;;;;;5080432;27;45302;-80
2021/09/15 07:44:10;;;;;;;;;19.50;17.75;;;;;;;;5077282;27;46249;-79
2021/09/15 07:46:36;;;;;;;;;14.00;11.33;;;;;;;;5077874;27;45627;-80
2021/09/15 07:49:01;;;;;;;;;16.33;12.33;;;;;;;;5084066;27;45769;-80
2021/09/15 07:51:26;;;;;;;;;16.50;13.50;;;;;;;;5082350;27;45742;-78
2021/09/15 07:53:52;;;;;;;;;20.00;12.50;;;;;;;;5078190;27;46232;-80
2021/09/15 07:56:17;;;;;;;;;14.50;12.25;;;;;;;;5081396;27;45776;-80
2021/09/15 07:58:42;;;;;;;;;13.00;11.25;;;;;;;;5074602;27;45282;-80
2021/09/15 08:01:08;;;;;;;;;11.25;10.00;;;;;;;;5078242;27;45586;-80
2021/09/15 08:03:33;;;;;;;;;10.00;8.75;;;;;;;;5074214;27;45464;-80
2021/09/15 08:06:00;;;;;;;;;10.00;9.75;;;;;;;;5078968;27;45360;-80
2021/09/15 08:08:25;;;;;;;;;12.00;11.00;;;;;;;;5076132;27;45957;-80
2021/09/15 08:10:50;;;;;;;;;13.00;10.33;;;;;;;;5076190;27;45489;-80
2021/09/15 08:13:16;;;;;;;;;10.25;9.00;;;;;;;;5087725;27;46274;-80
2021/09/15 08:15:41;;;;;;;;;8.25;7.25;;;;;;;;5078619;27;45459;-80
2021/09/15 08:18:06;;;;;;;;;10.00;8.75;;;;;;;;5078391;27;45297;-80
2021/09/15 08:20:32;;;;;;;;;8.67;8.67;;;;;;;;5080885;27;45841;-80
2021/09/15 08:22:57;;;;;;;;;11.00;10.00;;;;;;;;5080972;27;45145;-80
2021/09/15 08:25:22;;;;;;;;;9.33;8.00;;;;;;;;5079228;27;45512;-80
2021/09/15 08:27:48;;;;;;;;;7.25;6.75;;;;;;;;5073488;27;45399;-80
2021/09/15 08:30:13;;;;;;;;;10.25;8.00;;;;;;;;5080028;27;45407;-80
2021/09/15 08:32:38;;;;;;;;;8.25;7.00;;;;;;;;5075033;27;45438;-80
2021/09/15 08:35:04;;;;;;;;;8.00;7.50;;;;;;;;5082783;27;45678;-80
2021/09/15 08:37:33;;;;;;;;;8.25;5.00;;;;;;;;5081375;27;45343;-79
2021/09/15 08:39:58;;;;;;;;;6.75;5.25;;;;;;;;5080365;27;45374;-79
2021/09/15 08:42:23;;;;;;;;;6.00;5.00;;;;;;;;5072737;27;45627;-80
2021/09/15 08:44:49;;;;;;;;;5.67;5.67;;;;;;;;5071971;27;45671;-81
2021/09/15 08:47:14;;;;;;;;;6.00;6.00;;;;;;;;5076812;27;45377;-80
2021/09/15 08:49:39;;;;;;;;;8.00;7.25;;;;;;;;5073656;27;45806;-80
2021/09/15 08:52:05;;;;;;;;;8.25;6.50;;;;;;;;5058461;28;45418;-82
2021/09/15 08:54:30;;;;;;;;;8.00;7.00;;;;;;;;5068943;28;45361;-78
2021/09/15 08:56:55;;;;;;;;;6.67;6.67;;;;;;;;5070589;28;45473;-80
2021/09/15 08:59:20;;;;;;;;;6.00;6.00;;;;;;;;5071852;28;45267;-80
2021/09/15 09:01:46;;;;;;;;;7.00;7.00;;;;;;;;5078358;28;46277;-80
2021/09/15 09:04:15;;;;;;;;;6.75;6.00;;;;;;;;5063679;27;45335;-80
2021/09/15 09:06:40;;;;;;;;;8.00;8.00;;;;;;;;5079413;27;45492;-82
2021/09/15 09:09:05;;;;;;;;;10.25;6.00;;;;;;;;5077889;28;45581;-82
2021/09/15 09:11:33;;;;;;;;;9.00;8.33;;;;;;;;5074023;28;46405;-82
2021/09/15 09:14:00;;;;;;;;;7.00;7.00;;;;;;;;5072319;28;45771;-82
2021/09/15 09:16:42;;;;;;;;;8.25;7.75;;;;;;;;5059360;28;45454;-81
2021/09/15 09:19:09;;;;;;;;;7.25;5.50;;;;;;;;5057604;28;45789;-82
2021/09/15 09:21:35;;;;;;;;;7.25;6.50;;;;;;;;5058912;28;46294;-82
2021/09/15 09:24:01;;;;;;;;;6.25;5.00;;;;;;;;5064945;28;45312;-82
2021/09/15 09:26:45;;;;;;;;;8.00;5.50;;;;;;;;5079253;28;45347;-82
2021/09/15 09:29:11;;;;;;;;;7.00;6.00;;;;;;;;5078966;27;45918;-81
2021/09/15 09:31:37;;;;;;;;;8.00;8.00;;;;;;;;5078432;27;46115;-81
2021/09/15 09:34:03;;;;;;;;;10.00;9.00;;;;;;;;5076962;28;45308;-81
2021/09/15 09:36:29;;;;;;;;;8.25;6.75;;;;;;;;5078746;28;45324;-81
2021/09/15 09:38:54;;;;;;;;;8.00;5.25;;;;;;;;5078786;28;45434;-81
2021/09/15 09:41:20;;;;;;;;;7.00;6.00;;;;;;;;5078215;28;45401;-81
2021/09/15 09:43:46;;;;;;;;;7.50;5.75;;;;;;;;5061632;28;45429;-81
2021/09/15 09:46:12;;;;;;;;;6.50;6.00;;;;;;;;5061861;28;45403;-81
2021/09/15 09:48:38;;;;;;;;;6.00;5.00;;;;;;;;5061837;28;45382;-81
2021/09/15 09:51:20;;;;;;;;;7.25;5.50;;;;;;;;5061292;28;45501;-81
2021/09/15 09:53:45;;;;;;;;;5.00;4.00;;;;;;;;5061759;28;45448;-81
2021/09/15 09:56:11;;;;;;;;;6.67;5.00;;;;;;;;5065909;28;45441;-81
2021/09/15 09:58:37;;;;;;;;;5.00;4.75;;;;;;;;5072737;28;45522;-81
2021/09/15 10:01:02;;;;;;;;;5.00;5.00;;;;;;;;5062033;27;46225;-81
2021/09/15 10:03:28;;;;;;;;;20.00;16.50;;;;;;;;5060392;28;45514;-81
2021/09/15 10:05:53;;;;;;;;;9.33;8.33;;;;;;;;5062531;28;45576;-81
2021/09/15 10:08:20;;;;;;;;;8.00;5.50;;;;;;;;5061667;28;45427;-81
2021/09/15 10:10:46;;;;;;;;;8.75;7.00;;;;;;;;5059979;28;48087;-81
2021/09/15 10:13:12;;;;;;;;;8.75;8.75;;;;;;;;5065532;28;45456;-82
2021/09/15 10:15:46;;;;;;;;;12.00;10.00;;;;;;;;5067295;28;45473;-82
2021/09/15 10:18:13;;;;;;;;;13.25;11.25;;;;;;;;5081577;27;45590;-81
2021/09/15 10:20:42;;;;;;;;;11.75;10.50;;;;;;;;5081821;27;45610;-81
2021/09/15 10:23:26;;;;;;;;;9.25;7.50;;;;;;;;5082004;28;45389;-82
2021/09/15 10:25:51;;;;;;;;;11.75;9.75;;;;;;;;5082271;27;45452;-83
2021/09/15 10:28:17;;;;;;;;;11.00;11.00;;;;;;;;5081418;28;45719;-82
2021/09/15 10:30:43;;;;;;;;;12.75;10.75;;;;;;;;5066217;27;45902;-83
2021/09/15 10:33:29;;;;;;;;;12.75;12.25;;;;;;;;5081573;27;45625;-83
2021/09/15 10:35:54;;;;;;;;;16.50;14.50;;;;;;;;5081204;28;45326;-82
2021/09/15 10:38:39;;;;;;;;;16.75;13.00;;;;;;;;5073203;28;45605;-83
2021/09/15 10:41:24;;;;;;;;;22.75;19.25;;;;;;;;5075171;27;46449;-82
2021/09/15 10:44:02;;;;;;;;;20.75;18.50;;;;;;;;5061532;28;45654;-80
2021/09/15 10:46:27;;;;;;;;;20.75;15.50;;;;;;;;5072024;28;45433;-80
2021/09/15 10:49:31;;;;;;;;;18.00;17.00;;;;;;;;5080019;28;45279;-79
2021/09/15 10:52:09;;;;;;;;;18.50;14.75;;;;;;;;5077404;28;46190;-80
2021/09/15 10:54:55;;;;;;;;;17.00;15.75;;;;;;;;5079166;28;45403;-79
2021/09/15 10:57:27;;;;;;;;;18.75;18.00;;;;;;;;5078453;28;45464;-80
2021/09/15 10:59:55;;;;;;;;;19.25;16.00;;;;;;;;5060319;28;45905;-79
2021/09/15 11:02:24;;;;;;;;;25.50;20.75;;;;;;;;5060545;28;45425;-80
2021/09/15 11:04:49;;;;;;;;;15.75;14.75;;;;;;;;5060626;28;45525;-80
2021/09/15 11:07:54;;;;;;;;;15.00;13.00;;;;;;;;5060414;28;45470;-80
2021/09/15 11:10:31;;;;;;;;;19.00;16.50;;;;;;;;5046943;28;45463;-80
2021/09/15 11:12:57;;;;;;;;;12.00;10.75;;;;;;;;5050651;28;46280;-80
2021/09/15 11:15:23;;;;;;;;;17.50;15.75;;;;;;;;5060189;27;45556;-81
2021/09/15 11:17:48;;;;;;;;;21.50;16.00;;;;;;;;5073333;28;45879;-81
2021/09/15 11:20:13;;;;;;;;;21.67;16.33;;;;;;;;5071750;28;45805;-81
2021/09/15 11:22:39;;;;;;;;;16.00;13.67;;;;;;;;5068529;28;45827;-79
2021/09/15 11:25:04;;;;;;;;;15.25;13.75;;;;;;;;5075667;28;45728;-80
2021/09/15 11:27:29;;;;;;;;;17.25;17.25;;;;;;;;5071954;27;45534;-79
2021/09/15 11:29:55;;;;;;;;;14.67;14.67;;;;;;;;5071409;28;45471;-79
2021/09/15 11:32:21;;;;;;;;;23.50;20.00;;;;;;;;5075308;27;45555;-80
2021/09/15 11:34:48;;;;;;;;;21.25;17.50;;;;;;;;5072652;28;45394;-79
2021/09/15 11:37:23;;;;;;;;;21.50;21.25;;;;;;;;5073113;27;45390;-82
2021/09/15 11:39:54;;;;;;;;;12.00;12.00;;;;;;;;5071738;28;45519;-82
2021/09/15 11:42:23;;;;;;;;;22.00;16.50;;;;;;;;5080199;28;46965;-81
2021/09/15 11:44:49;;;;;;;;;13.25;10.00;;;;;;;;5071604;27;45489;-81
2021/09/15 11:47:21;;;;;;;;;9.75;9.75;;;;;;;;5072706;27;45318;-81
2021/09/15 11:49:47;;;;;;;;;13.00;12.25;;;;;;;;5063799;28;45743;-82
2021/09/15 11:52:12;;;;;;;;;14.25;14.25;;;;;;;;5069957;28;45472;-81
2021/09/15 11:54:37;;;;;;;;;12.50;12.50;;;;;;;;5071719;28;45618;-81
2021/09/15 11:57:08;;;;;;;;;14.25;12.00;;;;;;;;5069998;28;45391;-81
2021/09/15 11:59:33;;;;;;;;;12.50;10.50;;;;;;;;5069986;28;45546;-81
2021/09/15 12:02:02;;;;;;;;;15.50;12.50;;;;;;;;5076287;28;46705;-83
2021/09/15 12:04:29;;;;;;;;;14.00;12.00;;;;;;;;5077120;28;45331;-80
2021/09/15 12:06:54;;;;;;;;;11.25;11.25;;;;;;;;5080013;28;45363;-81
2021/09/15 12:09:21;;;;;;;;;12.50;11.00;;;;;;;;5079644;28;45647;-83
2021/09/15 12:11:48;;;;;;;;;12.25;9.25;;;;;;;;5079425;28;46389;-81
2021/09/15 12:14:14;;;;;;;;;12.75;10.00;;;;;;;;5067604;27;45278;-81
2021/09/15 12:16:40;;;;;;;;;13.75;12.25;;;;;;;;5070640;28;45404;-82
2021/09/15 12:19:16;;;;;;;;;12.25;9.50;;;;;;;;5078983;28;45483;-82
2021/09/15 12:21:42;;;;;;;;;15.75;15.75;;;;;;;;5068424;28;46426;-81
2021/09/15 12:24:07;;;;;;;;;14.50;12.75;;;;;;;;5068514;28;45572;-81
2021/09/15 12:26:33;;;;;;;;;13.25;10.75;;;;;;;;5069456;27;45454;-80
2021/09/15 12:29:00;;;;;;;;;13.75;13.75;;;;;;;;5068764;28;45460;-82
2021/09/15 12:31:36;;;;;;;;;14.75;12.00;;;;;;;;5067705;28;47801;-80
2021/09/15 12:34:03;;;;;;;;;13.00;13.00;;;;;;;;5069152;28;45498;-81
2021/09/15 12:36:29;;;;;;;;;19.00;13.50;;;;;;;;5066838;27;45464;-79
2021/09/15 12:38:57;;;;;;;;;16.00;14.50;;;;;;;;5069359;27;45588;-81
2021/09/15 12:41:24;;;;;;;;;21.50;17.50;;;;;;;;5069307;27;47634;-80
2021/09/15 12:43:50;;;;;;;;;17.00;15.25;;;;;;;;5068355;27;45556;-79
2021/09/15 12:46:22;;;;;;;;;24.50;17.50;;;;;;;;5063514;28;45362;-80
2021/09/15 12:48:47;;;;;;;;;21.25;20.00;;;;;;;;5072233;27;45470;-79
2021/09/15 12:51:15;;;;;;;;;23.50;20.00;;;;;;;;5070613;28;46200;-80
2021/09/15 12:56:09;;;;;;;;;;;;;;;;;;1487664;27;234066140;-79
2021/09/15 12:58:35;;;;;;;;;7.50;3.50;;;;;;;;2084777;28;43636568;-79
2021/09/15 13:01:00;;;;;;;;;19.00;15.50;;;;;;;;5071943;27;45448;-78
2021/09/15 13:03:35;;;;;;;;;16.00;14.75;;;;;;;;5068976;27;45419;-78
2021/09/15 13:06:01;;;;;;;;;18.00;15.75;;;;;;;;5066233;28;45459;-78
2021/09/15 13:08:30;;;;;;;;;19.75;16.50;;;;;;;;5070256;28;45357;-79
2021/09/15 13:10:57;;;;;;;;;20.50;16.50;;;;;;;;5052013;28;638183;-78
2021/09/15 13:13:23;;;;;;;;;29.00;24.00;;;;;;;;5070729;28;45502;-79
2021/09/15 13:15:49;;;;;;;;;29.00;24.00;;;;;;;;5067925;28;45853;-79
2021/09/15 13:18:15;;;;;;;;;28.25;24.25;;;;;;;;5074868;28;45544;-78
2021/09/15 13:20:40;;;;;;;;;26.25;24.00;;;;;;;;5072801;28;45341;-77
2021/09/15 13:23:06;;;;;;;;;24.75;22.75;;;;;;;;5074306;27;45515;-78
2021/09/15 13:25:31;;;;;;;;;28.25;27.50;;;;;;;;5070968;28;45345;-78
2021/09/15 13:27:57;;;;;;;;;32.50;25.75;;;;;;;;5082041;27;45639;-77
2021/09/15 13:30:22;;;;;;;;;35.00;28.75;;;;;;;;5081589;28;45404;-79
2021/09/15 13:32:47;;;;;;;;;34.67;29.67;;;;;;;;5081357;28;45467;-79
2021/09/15 13:35:13;;;;;;;;;43.67;30.67;;;;;;;;5083009;28;45367;-78
2021/09/15 13:37:38;;;;;;;;;37.00;31.25;;;;;;;;5076834;28;45294;-79
2021/09/15 13:40:05;;;;;;;;;39.50;33.50;;;;;;;;5073968;28;45361;-78
2021/09/15 13:42:30;;;;;;;;;39.00;34.25;;;;;;;;5069545;28;46248;-79
2021/09/15 13:44:56;;;;;;;;;49.00;36.50;;;;;;;;5076002;28;45441;-79
2021/09/15 13:47:21;;;;;;;;;42.00;32.25;;;;;;;;5072747;28;45435;-79
2021/09/15 13:49:48;;;;;;;;;46.00;34.00;;;;;;;;5082659;27;45508;-80
2021/09/15 13:52:15;;;;;;;;;41.75;34.00;;;;;;;;5103574;27;44981;-79
2021/09/15 13:54:42;;;;;;;;;40.25;34.50;;;;;;;;5085700;27;45701;-82
2021/09/15 13:57:08;;;;;;;;;46.75;37.25;;;;;;;;5077185;27;45358;-77
2021/09/15 13:59:33;;;;;;;;;46.00;35.50;;;;;;;;5078702;28;45337;-78
2021/09/15 14:01:58;;;;;;;;;45.75;34.25;;;;;;;;5074816;28;46977;-81
2021/09/15 14:04:24;;;;;;;;;46.75;38.00;;;;;;;;5073858;27;45426;-80
2021/09/15 14:06:49;;;;;;;;;48.25;35.00;;;;;;;;5068779;28;45444;-80
2021/09/15 14:09:14;;;;;;;;;38.33;34.67;;;;;;;;5072681;27;45547;-80
2021/09/15 14:11:39;;;;;;;;;35.33;30.33;;;;;;;;5070994;28;46314;-80
2021/09/15 14:14:05;;;;;;;;;45.33;32.33;;;;;;;;5072870;28;45314;-79
2021/09/15 14:16:31;;;;;;;;;41.25;33.50;;;;;;;;5084242;28;45574;-78
2021/09/15 14:18:56;;;;;;;;;44.00;33.75;;;;;;;;5079738;27;45584;-81
2021/09/15 14:21:21;;;;;;;;;36.00;32.00;;;;;;;;5072788;28;45416;-80
2021/09/15 14:23:46;;;;;;;;;36.33;29.00;;;;;;;;5072446;27;45466;-81
2021/09/15 14:26:12;;;;;;;;;39.33;30.67;;;;;;;;5074283;28;45454;-80
2021/09/15 14:28:37;;;;;;;;;34.50;29.75;;;;;;;;5070276;28;45393;-80
2021/09/15 14:31:03;;;;;;;;;31.75;30.25;;;;;;;;5074078;28;46095;-80
2021/09/15 14:33:28;;;;;;;;;34.75;29.50;;;;;;;;5071114;28;45532;-79
2021/09/15 14:35:53;;;;;;;;;35.67;29.67;;;;;;;;5071396;28;45370;-80